Grand Strand Airport
KCRE : now visible

Airfield :











YOU CAN JOIN US ON...

 
LOGIN :

Register | Disclaimer

   EN    FR    IT 

 









Legend :    VFR   Marginal VFR   IFR   Intensive IFR   Very Intensive IFR
Visi :
Ceiling :
>= 8 km
>= 3000ft
5 to 8 km
1000 to 3000 ft
1500m to 5 km
500 to 1000 ft
800 to 1500m
200 to 500 ft
< 800m
< 200 ft
Symbols :   Thunderstorms  Fog  Heavy snow  Heavy precipitations  Wind > 20 kt






- Airport Elevation : 32 ft


KCRE - Grand Strand

CURRENT METAR :
  • 281053Z AUTO 25008KT 10SM CLR 13/08 A2985 RMK AO1 SLP110 T01330083

EXPIRED METARs :
  • 280953Z AUTO 25007KT 10SM CLR 13/08 A2984 RMK AO1 SLP104 T01330083
  • 280853Z AUTO 25006KT 10SM CLR 14/08 A2982 RMK AO1 SLP099 T01440083 53007

TAF KCRE
Valid from the 28 at 06:00 until the 29 at 06:00 UTC


280520Z 2806/2906 26008KT P6SM SKC
FM281600 27013G20KT P6SM SKC
FM282200 29008KT P6SM SKC
KZJX FIR / North America



MET'MAP, your aeronautical weather chart ! - Copyright ORBIFLY December 2007 - Disclaimer

ORBIFLY MET'MAP TEAM :

Programming & Development : Alexandra Zaïnal
Original concept : Baudouin d'Aumeries
Technical & hardware support : Manuel Goepfert
Assistance : Marc-Olivier Méhu




SOURCES & CREDITS :

   NOAA       Earth
Advisory